sensor_id;sensor_type;location;lat;lon;timestamp;P1;durP1;ratioP1;P2;durP2;ratioP2
60241;SDS011;46103;52.076;113.488;2022-07-29T00:02:59;59.95;;;16.17;;
60241;SDS011;46103;52.076;113.488;2022-07-29T00:06:03;34.08;;;15.57;;
60241;SDS011;46103;52.076;113.488;2022-07-29T00:09:06;20.33;;;13.73;;
60241;SDS011;46103;52.076;113.488;2022-07-29T00:12:11;22.23;;;14.57;;
60241;SDS011;46103;52.076;113.488;2022-07-29T00:15:15;25.90;;;16.00;;
60241;SDS011;46103;52.076;113.488;2022-07-29T00:18:19;24.05;;;14.30;;
60241;SDS011;46103;52.076;113.488;2022-07-29T00:21:22;27.05;;;15.23;;
60241;SDS011;46103;52.076;113.488;2022-07-29T00:24:26;30.30;;;15.93;;
60241;SDS011;46103;52.076;113.488;2022-07-29T00:27:29;33.65;;;16.33;;
60241;SDS011;46103;52.076;113.488;2022-07-29T00:30:33;25.85;;;15.18;;
60241;SDS011;46103;52.076;113.488;2022-07-29T00:33:37;28.98;;;15.40;;
60241;SDS011;46103;52.076;113.488;2022-07-29T00:36:41;28.98;;;15.65;;
60241;SDS011;46103;52.076;113.488;2022-07-29T00:39:48;25.83;;;14.75;;
60241;SDS011;46103;52.076;113.488;2022-07-29T00:42:52;35.05;;;15.57;;
60241;SDS011;46103;52.076;113.488;2022-07-29T00:45:57;23.30;;;14.00;;
60241;SDS011;46103;52.076;113.488;2022-07-29T00:49:01;28.73;;;14.50;;
60241;SDS011;46103;52.076;113.488;2022-07-29T00:52:05;25.08;;;14.63;;
60241;SDS011;46103;52.076;113.488;2022-07-29T00:55:11;22.75;;;14.77;;
60241;SDS011;46103;52.076;113.488;2022-07-29T00:58:16;20.20;;;13.70;;
60241;SDS011;46103;52.076;113.488;2022-07-29T01:01:20;24.83;;;14.00;;
60241;SDS011;46103;52.076;113.488;2022-07-29T01:04:24;25.83;;;13.82;;
60241;SDS011;46103;52.076;113.488;2022-07-29T01:07:28;22.25;;;13.43;;
60241;SDS011;46103;52.076;113.488;2022-07-29T01:10:35;22.77;;;14.23;;
60241;SDS011;46103;52.076;113.488;2022-07-29T01:13:42;24.73;;;13.45;;
60241;SDS011;46103;52.076;113.488;2022-07-29T01:17:01;21.75;;;13.73;;
60241;SDS011;46103;52.076;113.488;2022-07-29T01:27:38;23.67;;;13.20;;
60241;SDS011;46103;52.076;113.488;2022-07-29T01:30:19;23.83;;;13.77;;
60241;SDS011;46103;52.076;113.488;2022-07-29T01:33:28;24.45;;;12.82;;
60241;SDS011;46103;52.076;113.488;2022-07-29T01:37:03;20.00;;;12.10;;
60241;SDS011;46103;52.076;113.488;2022-07-29T01:40:20;19.10;;;12.00;;
60241;SDS011;46103;52.076;113.488;2022-07-29T01:43:57;24.40;;;12.23;;
60241;SDS011;46103;52.076;113.488;2022-07-29T01:47:10;21.13;;;11.20;;
60241;SDS011;46103;52.076;113.488;2022-07-29T01:50:18;19.52;;;10.32;;
60241;SDS011;46103;52.076;113.488;2022-07-29T01:53:29;16.55;;;11.10;;
60241;SDS011;46103;52.076;113.488;2022-07-29T01:56:39;16.08;;;11.25;;
60241;SDS011;46103;52.076;113.488;2022-07-29T01:59:45;15.93;;;9.88;;
60241;SDS011;46103;52.076;113.488;2022-07-29T02:02:50;19.15;;;10.02;;
60241;SDS011;46103;52.076;113.488;2022-07-29T02:05:56;20.65;;;9.10;;
60241;SDS011;46103;52.076;113.488;2022-07-29T02:09:01;19.35;;;9.80;;
60241;SDS011;46103;52.076;113.488;2022-07-29T02:12:09;18.38;;;9.70;;
60241;SDS011;46103;52.076;113.488;2022-07-29T02:15:14;19.55;;;9.10;;
60241;SDS011;46103;52.076;113.488;2022-07-29T02:18:20;13.77;;;9.30;;
60241;SDS011;46103;52.076;113.488;2022-07-29T02:21:27;14.45;;;9.00;;
60241;SDS011;46103;52.076;113.488;2022-07-29T02:24:35;16.08;;;8.52;;
60241;SDS011;46103;52.076;113.488;2022-07-29T02:27:40;17.92;;;8.23;;
60241;SDS011;46103;52.076;113.488;2022-07-29T02:30:45;12.77;;;7.05;;
60241;SDS011;46103;52.076;113.488;2022-07-29T02:33:51;18.33;;;7.78;;
60241;SDS011;46103;52.076;113.488;2022-07-29T02:36:57;11.55;;;6.93;;
60241;SDS011;46103;52.076;113.488;2022-07-29T02:40:00;17.83;;;6.60;;
60241;SDS011;46103;52.076;113.488;2022-07-29T02:43:06;8.63;;;6.07;;
60241;SDS011;46103;52.076;113.488;2022-07-29T02:46:13;12.77;;;6.00;;
60241;SDS011;46103;52.076;113.488;2022-07-29T02:52:43;9.77;;;5.32;;
60241;SDS011;46103;52.076;113.488;2022-07-29T02:56:01;11.18;;;6.13;;
60241;SDS011;46103;52.076;113.488;2022-07-29T02:59:14;9.82;;;4.55;;
60241;SDS011;46103;52.076;113.488;2022-07-29T03:02:23;8.63;;;4.30;;
60241;SDS011;46103;52.076;113.488;2022-07-29T03:05:33;9.32;;;4.30;;
60241;SDS011;46103;52.076;113.488;2022-07-29T03:11:43;11.15;;;4.93;;
60241;SDS011;46103;52.076;113.488;2022-07-29T03:14:52;6.78;;;3.35;;
60241;SDS011;46103;52.076;113.488;2022-07-29T03:17:57;9.93;;;3.35;;
60241;SDS011;46103;52.076;113.488;2022-07-29T03:21:02;10.85;;;3.63;;
60241;SDS011;46103;52.076;113.488;2022-07-29T03:24:06;7.65;;;3.20;;
60241;SDS011;46103;52.076;113.488;2022-07-29T03:27:13;7.78;;;2.90;;
60241;SDS011;46103;52.076;113.488;2022-07-29T03:30:17;6.28;;;2.80;;
60241;SDS011;46103;52.076;113.488;2022-07-29T03:33:23;4.95;;;2.83;;
60241;SDS011;46103;52.076;113.488;2022-07-29T03:36:26;6.03;;;3.40;;
60241;SDS011;46103;52.076;113.488;2022-07-29T03:39:31;4.88;;;3.00;;
60241;SDS011;46103;52.076;113.488;2022-07-29T03:42:39;8.80;;;3.92;;
60241;SDS011;46103;52.076;113.488;2022-07-29T03:45:44;4.53;;;2.97;;
60241;SDS011;46103;52.076;113.488;2022-07-29T03:48:52;9.88;;;3.90;;
60241;SDS011;46103;52.076;113.488;2022-07-29T03:52:01;11.65;;;3.40;;
60241;SDS011;46103;52.076;113.488;2022-07-29T03:55:05;7.57;;;3.67;;
60241;SDS011;46103;52.076;113.488;2022-07-29T03:58:11;6.25;;;3.40;;
60241;SDS011;46103;52.076;113.488;2022-07-29T04:01:16;11.45;;;4.15;;
60241;SDS011;46103;52.076;113.488;2022-07-29T04:04:21;11.30;;;4.32;;
60241;SDS011;46103;52.076;113.488;2022-07-29T04:10:33;8.32;;;4.20;;
60241;SDS011;46103;52.076;113.488;2022-07-29T04:13:37;10.07;;;4.60;;
60241;SDS011;46103;52.076;113.488;2022-07-29T04:16:40;8.82;;;4.28;;
60241;SDS011;46103;52.076;113.488;2022-07-29T04:19:44;10.30;;;4.00;;
60241;SDS011;46103;52.076;113.488;2022-07-29T04:22:48;8.35;;;4.47;;
60241;SDS011;46103;52.076;113.488;2022-07-29T04:25:51;7.70;;;3.47;;
60241;SDS011;46103;52.076;113.488;2022-07-29T04:28:55;6.07;;;3.40;;
60241;SDS011;46103;52.076;113.488;2022-07-29T04:31:58;6.75;;;4.10;;
60241;SDS011;46103;52.076;113.488;2022-07-29T04:35:02;7.88;;;4.88;;
60241;SDS011;46103;52.076;113.488;2022-07-29T04:38:06;10.27;;;5.07;;
60241;SDS011;46103;52.076;113.488;2022-07-29T04:41:18;12.32;;;4.88;;
60241;SDS011;46103;52.076;113.488;2022-07-29T04:44:22;17.10;;;4.88;;
60241;SDS011;46103;52.076;113.488;2022-07-29T04:47:30;8.63;;;4.65;;
60241;SDS011;46103;52.076;113.488;2022-07-29T04:50:33;6.25;;;4.43;;
60241;SDS011;46103;52.076;113.488;2022-07-29T04:53:37;9.90;;;4.57;;
60241;SDS011;46103;52.076;113.488;2022-07-29T04:56:41;11.18;;;4.18;;
60241;SDS011;46103;52.076;113.488;2022-07-29T04:59:45;8.63;;;4.10;;
60241;SDS011;46103;52.076;113.488;2022-07-29T05:02:49;10.25;;;3.95;;
60241;SDS011;46103;52.076;113.488;2022-07-29T05:08:58;5.25;;;2.70;;
60241;SDS011;46103;52.076;113.488;2022-07-29T05:12:02;10.52;;;3.33;;
60241;SDS011;46103;52.076;113.488;2022-07-29T05:15:06;7.05;;;3.20;;
60241;SDS011;46103;52.076;113.488;2022-07-29T05:18:10;6.07;;;3.17;;
60241;SDS011;46103;52.076;113.488;2022-07-29T05:21:14;5.93;;;3.08;;
60241;SDS011;46103;52.076;113.488;2022-07-29T05:24:18;5.18;;;3.22;;
60241;SDS011;46103;52.076;113.488;2022-07-29T05:27:21;6.30;;;3.10;;
60241;SDS011;46103;52.076;113.488;2022-07-29T05:30:25;5.32;;;3.30;;
60241;SDS011;46103;52.076;113.488;2022-07-29T05:33:29;10.30;;;3.72;;
60241;SDS011;46103;52.076;113.488;2022-07-29T05:36:38;7.55;;;2.80;;
60241;SDS011;46103;52.076;113.488;2022-07-29T05:39:41;6.38;;;3.30;;
60241;SDS011;46103;52.076;113.488;2022-07-29T05:42:51;3.80;;;3.05;;
60241;SDS011;46103;52.076;113.488;2022-07-29T05:45:55;5.65;;;3.20;;
60241;SDS011;46103;52.076;113.488;2022-07-29T05:49:00;6.30;;;3.03;;
60241;SDS011;46103;52.076;113.488;2022-07-29T05:52:05;7.53;;;2.78;;
60241;SDS011;46103;52.076;113.488;2022-07-29T05:55:09;8.00;;;2.83;;
60241;SDS011;46103;52.076;113.488;2022-07-29T05:58:13;5.63;;;2.80;;
60241;SDS011;46103;52.076;113.488;2022-07-29T06:01:19;6.55;;;2.60;;
60241;SDS011;46103;52.076;113.488;2022-07-29T06:04:23;8.38;;;2.95;;
60241;SDS011;46103;52.076;113.488;2022-07-29T06:07:27;4.97;;;2.05;;
60241;SDS011;46103;52.076;113.488;2022-07-29T06:10:35;6.05;;;2.63;;
60241;SDS011;46103;52.076;113.488;2022-07-29T06:13:39;6.43;;;2.60;;
60241;SDS011;46103;52.076;113.488;2022-07-29T06:16:42;6.57;;;2.90;;
60241;SDS011;46103;52.076;113.488;2022-07-29T06:19:46;8.05;;;2.35;;
60241;SDS011;46103;52.076;113.488;2022-07-29T06:22:50;4.65;;;2.40;;
60241;SDS011;46103;52.076;113.488;2022-07-29T06:25:54;5.13;;;2.42;;
60241;SDS011;46103;52.076;113.488;2022-07-29T06:28:57;4.70;;;2.63;;
60241;SDS011;46103;52.076;113.488;2022-07-29T06:32:01;5.63;;;2.47;;
60241;SDS011;46103;52.076;113.488;2022-07-29T06:35:06;6.03;;;2.70;;
60241;SDS011;46103;52.076;113.488;2022-07-29T06:38:29;3.63;;;2.20;;
60241;SDS011;46103;52.076;113.488;2022-07-29T06:41:41;6.05;;;2.40;;
60241;SDS011;46103;52.076;113.488;2022-07-29T06:44:47;4.20;;;2.33;;
60241;SDS011;46103;52.076;113.488;2022-07-29T06:47:51;7.00;;;2.13;;
60241;SDS011;46103;52.076;113.488;2022-07-29T06:50:55;4.47;;;2.30;;
60241;SDS011;46103;52.076;113.488;2022-07-29T06:53:59;5.03;;;2.03;;
60241;SDS011;46103;52.076;113.488;2022-07-29T06:57:04;5.20;;;2.50;;
60241;SDS011;46103;52.076;113.488;2022-07-29T07:00:09;6.85;;;2.60;;
60241;SDS011;46103;52.076;113.488;2022-07-29T07:03:13;6.15;;;2.35;;
60241;SDS011;46103;52.076;113.488;2022-07-29T07:06:18;5.65;;;2.50;;
60241;SDS011;46103;52.076;113.488;2022-07-29T07:09:21;4.15;;;1.98;;
60241;SDS011;46103;52.076;113.488;2022-07-29T07:12:41;8.80;;;2.50;;
60241;SDS011;46103;52.076;113.488;2022-07-29T07:15:45;4.38;;;2.28;;
60241;SDS011;46103;52.076;113.488;2022-07-29T07:18:51;4.18;;;1.90;;
60241;SDS011;46103;52.076;113.488;2022-07-29T07:21:55;8.18;;;2.10;;
60241;SDS011;46103;52.076;113.488;2022-07-29T07:24:59;6.82;;;1.90;;
60241;SDS011;46103;52.076;113.488;2022-07-29T07:28:02;3.80;;;1.88;;
60241;SDS011;46103;52.076;113.488;2022-07-29T07:31:06;8.07;;;2.03;;
60241;SDS011;46103;52.076;113.488;2022-07-29T07:34:10;6.05;;;2.58;;
60241;SDS011;46103;52.076;113.488;2022-07-29T07:37:15;2.73;;;1.70;;
60241;SDS011;46103;52.076;113.488;2022-07-29T07:40:20;3.90;;;2.00;;
60241;SDS011;46103;52.076;113.488;2022-07-29T07:43:24;5.22;;;1.98;;
60241;SDS011;46103;52.076;113.488;2022-07-29T07:46:27;7.00;;;1.90;;
60241;SDS011;46103;52.076;113.488;2022-07-29T07:49:31;3.90;;;1.83;;
60241;SDS011;46103;52.076;113.488;2022-07-29T07:52:37;4.50;;;1.70;;
60241;SDS011;46103;52.076;113.488;2022-07-29T07:55:53;3.60;;;1.88;;
60241;SDS011;46103;52.076;113.488;2022-07-29T07:59:13;2.33;;;1.77;;
60241;SDS011;46103;52.076;113.488;2022-07-29T08:02:17;4.50;;;1.88;;
60241;SDS011;46103;52.076;113.488;2022-07-29T08:05:21;5.43;;;1.80;;
60241;SDS011;46103;52.076;113.488;2022-07-29T08:08:25;3.78;;;1.70;;
60241;SDS011;46103;52.076;113.488;2022-07-29T08:11:28;3.95;;;1.75;;
60241;SDS011;46103;52.076;113.488;2022-07-29T08:14:37;3.15;;;1.40;;
60241;SDS011;46103;52.076;113.488;2022-07-29T08:17:40;5.00;;;1.80;;
60241;SDS011;46103;52.076;113.488;2022-07-29T08:20:44;4.20;;;2.00;;
60241;SDS011;46103;52.076;113.488;2022-07-29T08:23:48;4.05;;;1.50;;
60241;SDS011;46103;52.076;113.488;2022-07-29T08:27:01;5.55;;;1.50;;
60241;SDS011;46103;52.076;113.488;2022-07-29T08:30:22;2.33;;;1.40;;
60241;SDS011;46103;52.076;113.488;2022-07-29T08:33:26;4.80;;;1.73;;
60241;SDS011;46103;52.076;113.488;2022-07-29T08:36:30;6.90;;;1.45;;
60241;SDS011;46103;52.076;113.488;2022-07-29T08:39:35;2.08;;;1.58;;
60241;SDS011;46103;52.076;113.488;2022-07-29T08:42:38;2.65;;;1.33;;
60241;SDS011;46103;52.076;113.488;2022-07-29T08:45:43;4.25;;;1.33;;
60241;SDS011;46103;52.076;113.488;2022-07-29T08:48:51;2.85;;;1.50;;
60241;SDS011;46103;52.076;113.488;2022-07-29T08:51:56;4.80;;;1.33;;
60241;SDS011;46103;52.076;113.488;2022-07-29T08:55:01;5.43;;;1.55;;
60241;SDS011;46103;52.076;113.488;2022-07-29T08:58:06;3.65;;;1.52;;
60241;SDS011;46103;52.076;113.488;2022-07-29T09:01:16;5.68;;;1.50;;
60241;SDS011;46103;52.076;113.488;2022-07-29T09:04:37;2.45;;;1.45;;
60241;SDS011;46103;52.076;113.488;2022-07-29T09:07:42;1.48;;;1.35;;
60241;SDS011;46103;52.076;113.488;2022-07-29T09:10:50;2.67;;;1.63;;
60241;SDS011;46103;52.076;113.488;2022-07-29T09:13:54;2.35;;;1.38;;
60241;SDS011;46103;52.076;113.488;2022-07-29T09:16:58;5.97;;;1.53;;
60241;SDS011;46103;52.076;113.488;2022-07-29T09:20:16;4.18;;;1.42;;
60241;SDS011;46103;52.076;113.488;2022-07-29T09:23:24;2.58;;;1.70;;
60241;SDS011;46103;52.076;113.488;2022-07-29T09:26:29;4.32;;;1.50;;
60241;SDS011;46103;52.076;113.488;2022-07-29T09:29:34;5.53;;;2.78;;
60241;SDS011;46103;52.076;113.488;2022-07-29T09:32:58;4.57;;;1.60;;
60241;SDS011;46103;52.076;113.488;2022-07-29T09:36:05;4.70;;;1.35;;
60241;SDS011;46103;52.076;113.488;2022-07-29T09:39:13;7.15;;;1.60;;
60241;SDS011;46103;52.076;113.488;2022-07-29T09:42:27;3.47;;;1.20;;
60241;SDS011;46103;52.076;113.488;2022-07-29T09:45:33;2.08;;;1.50;;
60241;SDS011;46103;52.076;113.488;2022-07-29T09:48:37;3.58;;;1.30;;
60241;SDS011;46103;52.076;113.488;2022-07-29T09:51:41;1.80;;;1.20;;
60241;SDS011;46103;52.076;113.488;2022-07-29T09:54:45;2.47;;;1.40;;
60241;SDS011;46103;52.076;113.488;2022-07-29T09:57:48;2.35;;;1.30;;
60241;SDS011;46103;52.076;113.488;2022-07-29T10:00:53;4.38;;;2.03;;
60241;SDS011;46103;52.076;113.488;2022-07-29T10:03:58;5.05;;;1.60;;
60241;SDS011;46103;52.076;113.488;2022-07-29T10:07:02;1.60;;;1.40;;
60241;SDS011;46103;52.076;113.488;2022-07-29T10:10:07;4.20;;;1.60;;
60241;SDS011;46103;52.076;113.488;2022-07-29T10:13:12;3.03;;;1.50;;
60241;SDS011;46103;52.076;113.488;2022-07-29T10:16:18;1.70;;;1.17;;
60241;SDS011;46103;52.076;113.488;2022-07-29T10:19:22;3.65;;;1.30;;
60241;SDS011;46103;52.076;113.488;2022-07-29T10:22:26;2.70;;;1.50;;
60241;SDS011;46103;52.076;113.488;2022-07-29T10:25:50;1.80;;;1.10;;
60241;SDS011;46103;52.076;113.488;2022-07-29T10:28:53;4.57;;;1.60;;
60241;SDS011;46103;52.076;113.488;2022-07-29T10:32:16;2.83;;;1.45;;
60241;SDS011;46103;52.076;113.488;2022-07-29T10:35:32;5.40;;;1.60;;
60241;SDS011;46103;52.076;113.488;2022-07-29T10:45:21;2.65;;;1.58;;
60241;SDS011;46103;52.076;113.488;2022-07-29T10:55:02;3.75;;;1.80;;
60241;SDS011;46103;52.076;113.488;2022-07-29T10:58:20;8.20;;;2.60;;
60241;SDS011;46103;52.076;113.488;2022-07-29T11:01:28;2.88;;;1.50;;
60241;SDS011;46103;52.076;113.488;2022-07-29T11:18:22;4.55;;;1.75;;
60241;SDS011;46103;52.076;113.488;2022-07-29T11:21:36;3.20;;;1.50;;
60241;SDS011;46103;52.076;113.488;2022-07-29T11:25:16;10.35;;;5.35;;
60241;SDS011;46103;52.076;113.488;2022-07-29T11:28:36;2.70;;;1.70;;
60241;SDS011;46103;52.076;113.488;2022-07-29T11:31:55;7.85;;;2.65;;
60241;SDS011;46103;52.076;113.488;2022-07-29T11:35:20;6.35;;;1.98;;
60241;SDS011;46103;52.076;113.488;2022-07-29T11:38:39;7.32;;;1.45;;
60241;SDS011;46103;52.076;113.488;2022-07-29T11:41:43;2.55;;;1.40;;
60241;SDS011;46103;52.076;113.488;2022-07-29T11:47:59;5.22;;;1.70;;
60241;SDS011;46103;52.076;113.488;2022-07-29T11:51:23;3.25;;;1.30;;
60241;SDS011;46103;52.076;113.488;2022-07-29T11:54:34;3.35;;;1.52;;
60241;SDS011;46103;52.076;113.488;2022-07-29T11:58:01;3.13;;;1.80;;
60241;SDS011;46103;52.076;113.488;2022-07-29T12:01:05;4.63;;;1.63;;
60241;SDS011;46103;52.076;113.488;2022-07-29T12:04:10;2.53;;;1.40;;
60241;SDS011;46103;52.076;113.488;2022-07-29T12:07:15;4.80;;;1.40;;
60241;SDS011;46103;52.076;113.488;2022-07-29T12:10:19;4.38;;;1.50;;
60241;SDS011;46103;52.076;113.488;2022-07-29T12:13:38;2.40;;;1.48;;
60241;SDS011;46103;52.076;113.488;2022-07-29T12:16:43;3.40;;;1.48;;
60241;SDS011;46103;52.076;113.488;2022-07-29T12:19:47;4.75;;;3.05;;
60241;SDS011;46103;52.076;113.488;2022-07-29T12:22:52;2.70;;;1.52;;
60241;SDS011;46103;52.076;113.488;2022-07-29T12:25:57;3.53;;;1.58;;
60241;SDS011;46103;52.076;113.488;2022-07-29T12:29:03;8.35;;;1.88;;
60241;SDS011;46103;52.076;113.488;2022-07-29T12:32:21;5.20;;;1.88;;
60241;SDS011;46103;52.076;113.488;2022-07-29T12:35:26;3.85;;;1.90;;
60241;SDS011;46103;52.076;113.488;2022-07-29T12:38:30;4.10;;;1.98;;
60241;SDS011;46103;52.076;113.488;2022-07-29T12:41:37;7.30;;;2.10;;
60241;SDS011;46103;52.076;113.488;2022-07-29T12:44:45;5.47;;;1.98;;
60241;SDS011;46103;52.076;113.488;2022-07-29T12:47:50;7.78;;;2.67;;
60241;SDS011;46103;52.076;113.488;2022-07-29T12:50:55;4.90;;;2.08;;
60241;SDS011;46103;52.076;113.488;2022-07-29T12:54:14;8.10;;;2.75;;
60241;SDS011;46103;52.076;113.488;2022-07-29T12:57:18;10.55;;;6.10;;
60241;SDS011;46103;52.076;113.488;2022-07-29T13:00:23;6.63;;;3.42;;
60241;SDS011;46103;52.076;113.488;2022-07-29T13:03:27;6.20;;;2.40;;
60241;SDS011;46103;52.076;113.488;2022-07-29T13:06:41;5.03;;;2.47;;
60241;SDS011;46103;52.076;113.488;2022-07-29T13:09:50;12.48;;;5.78;;
60241;SDS011;46103;52.076;113.488;2022-07-29T13:13:11;5.47;;;2.20;;
60241;SDS011;46103;52.076;113.488;2022-07-29T13:16:16;5.13;;;2.30;;
60241;SDS011;46103;52.076;113.488;2022-07-29T13:19:31;2.90;;;2.10;;
60241;SDS011;46103;52.076;113.488;2022-07-29T13:22:47;6.28;;;2.10;;
60241;SDS011;46103;52.076;113.488;2022-07-29T13:25:52;6.20;;;2.80;;
60241;SDS011;46103;52.076;113.488;2022-07-29T13:28:56;5.65;;;3.00;;
60241;SDS011;46103;52.076;113.488;2022-07-29T13:31:59;5.95;;;2.53;;
60241;SDS011;46103;52.076;113.488;2022-07-29T13:35:05;5.22;;;2.60;;
60241;SDS011;46103;52.076;113.488;2022-07-29T13:38:09;4.55;;;2.72;;
60241;SDS011;46103;52.076;113.488;2022-07-29T13:41:14;10.90;;;4.25;;
60241;SDS011;46103;52.076;113.488;2022-07-29T13:44:19;9.25;;;4.35;;
60241;SDS011;46103;52.076;113.488;2022-07-29T13:47:22;9.05;;;4.18;;
60241;SDS011;46103;52.076;113.488;2022-07-29T13:50:34;5.30;;;2.85;;
60241;SDS011;46103;52.076;113.488;2022-07-29T13:53:38;10.18;;;3.50;;
60241;SDS011;46103;52.076;113.488;2022-07-29T13:56:41;10.20;;;4.47;;
60241;SDS011;46103;52.076;113.488;2022-07-29T13:59:47;14.38;;;6.00;;
60241;SDS011;46103;52.076;113.488;2022-07-29T14:02:55;12.77;;;5.45;;
60241;SDS011;46103;52.076;113.488;2022-07-29T14:05:59;13.93;;;6.35;;
60241;SDS011;46103;52.076;113.488;2022-07-29T14:09:03;8.40;;;4.50;;
60241;SDS011;46103;52.076;113.488;2022-07-29T14:12:14;10.48;;;5.22;;
60241;SDS011;46103;52.076;113.488;2022-07-29T14:15:18;8.95;;;3.67;;
60241;SDS011;46103;52.076;113.488;2022-07-29T14:18:24;14.93;;;6.03;;
60241;SDS011;46103;52.076;113.488;2022-07-29T14:21:27;15.63;;;4.30;;
60241;SDS011;46103;52.076;113.488;2022-07-29T14:24:33;16.00;;;7.83;;
60241;SDS011;46103;52.076;113.488;2022-07-29T14:27:38;14.25;;;5.95;;
60241;SDS011;46103;52.076;113.488;2022-07-29T14:30:43;16.55;;;6.70;;
60241;SDS011;46103;52.076;113.488;2022-07-29T14:33:46;11.68;;;5.82;;
60241;SDS011;46103;52.076;113.488;2022-07-29T14:36:50;21.27;;;8.35;;
60241;SDS011;46103;52.076;113.488;2022-07-29T14:39:54;17.48;;;6.95;;
60241;SDS011;46103;52.076;113.488;2022-07-29T14:43:02;18.17;;;7.75;;
60241;SDS011;46103;52.076;113.488;2022-07-29T14:46:06;19.85;;;7.90;;
60241;SDS011;46103;52.076;113.488;2022-07-29T14:49:11;23.55;;;7.90;;
60241;SDS011;46103;52.076;113.488;2022-07-29T14:52:14;21.42;;;7.75;;
60241;SDS011;46103;52.076;113.488;2022-07-29T14:55:18;11.90;;;6.93;;
60241;SDS011;46103;52.076;113.488;2022-07-29T14:58:22;15.38;;;6.88;;
60241;SDS011;46103;52.076;113.488;2022-07-29T15:01:27;25.77;;;8.10;;
60241;SDS011;46103;52.076;113.488;2022-07-29T15:04:33;27.10;;;7.97;;
60241;SDS011;46103;52.076;113.488;2022-07-29T15:10:41;24.50;;;9.30;;
60241;SDS011;46103;52.076;113.488;2022-07-29T15:13:45;25.10;;;8.65;;
60241;SDS011;46103;52.076;113.488;2022-07-29T15:16:48;22.15;;;8.80;;
60241;SDS011;46103;52.076;113.488;2022-07-29T15:19:53;18.33;;;8.68;;
60241;SDS011;46103;52.076;113.488;2022-07-29T15:22:57;20.17;;;8.95;;
60241;SDS011;46103;52.076;113.488;2022-07-29T15:26:01;20.85;;;8.75;;
60241;SDS011;46103;52.076;113.488;2022-07-29T15:29:05;25.45;;;14.65;;
60241;SDS011;46103;52.076;113.488;2022-07-29T15:32:09;32.53;;;11.30;;
60241;SDS011;46103;52.076;113.488;2022-07-29T15:35:13;19.25;;;10.23;;
60241;SDS011;46103;52.076;113.488;2022-07-29T15:38:17;19.50;;;9.50;;
60241;SDS011;46103;52.076;113.488;2022-07-29T15:41:30;27.15;;;11.02;;
60241;SDS011;46103;52.076;113.488;2022-07-29T15:44:34;21.65;;;10.70;;
60241;SDS011;46103;52.076;113.488;2022-07-29T15:47:37;26.77;;;10.82;;
60241;SDS011;46103;52.076;113.488;2022-07-29T15:50:41;24.55;;;10.43;;
60241;SDS011;46103;52.076;113.488;2022-07-29T15:53:48;27.67;;;10.00;;
60241;SDS011;46103;52.076;113.488;2022-07-29T15:56:55;25.85;;;12.10;;
60241;SDS011;46103;52.076;113.488;2022-07-29T15:59:59;27.92;;;10.90;;
60241;SDS011;46103;52.076;113.488;2022-07-29T16:03:08;29.85;;;12.65;;
60241;SDS011;46103;52.076;113.488;2022-07-29T16:06:12;17.20;;;9.98;;
60241;SDS011;46103;52.076;113.488;2022-07-29T16:09:16;24.85;;;10.40;;
60241;SDS011;46103;52.076;113.488;2022-07-29T16:12:20;27.65;;;10.05;;
60241;SDS011;46103;52.076;113.488;2022-07-29T16:15:24;27.42;;;10.95;;
60241;SDS011;46103;52.076;113.488;2022-07-29T16:18:28;23.92;;;9.85;;
60241;SDS011;46103;52.076;113.488;2022-07-29T16:21:32;22.38;;;9.48;;
60241;SDS011;46103;52.076;113.488;2022-07-29T16:24:37;23.55;;;11.15;;
60241;SDS011;46103;52.076;113.488;2022-07-29T16:27:41;31.83;;;10.18;;
60241;SDS011;46103;52.076;113.488;2022-07-29T16:30:45;22.10;;;9.43;;
60241;SDS011;46103;52.076;113.488;2022-07-29T16:33:49;16.38;;;8.43;;
60241;SDS011;46103;52.076;113.488;2022-07-29T16:36:57;19.67;;;9.13;;
60241;SDS011;46103;52.076;113.488;2022-07-29T16:40:01;28.98;;;10.95;;
60241;SDS011;46103;52.076;113.488;2022-07-29T16:43:06;18.83;;;9.70;;
60241;SDS011;46103;52.076;113.488;2022-07-29T16:46:10;21.23;;;9.52;;
60241;SDS011;46103;52.076;113.488;2022-07-29T16:49:20;23.63;;;10.35;;
60241;SDS011;46103;52.076;113.488;2022-07-29T16:52:24;19.60;;;9.00;;
60241;SDS011;46103;52.076;113.488;2022-07-29T16:55:27;20.08;;;9.48;;
60241;SDS011;46103;52.076;113.488;2022-07-29T16:58:31;26.52;;;10.13;;
60241;SDS011;46103;52.076;113.488;2022-07-29T17:01:35;21.20;;;10.20;;
60241;SDS011;46103;52.076;113.488;2022-07-29T17:04:38;23.45;;;10.02;;
60241;SDS011;46103;52.076;113.488;2022-07-29T17:07:43;18.08;;;8.80;;
60241;SDS011;46103;52.076;113.488;2022-07-29T17:10:46;24.65;;;10.07;;
60241;SDS011;46103;52.076;113.488;2022-07-29T17:13:50;21.50;;;10.10;;
60241;SDS011;46103;52.076;113.488;2022-07-29T17:16:54;20.05;;;9.60;;
60241;SDS011;46103;52.076;113.488;2022-07-29T17:20:04;27.88;;;14.13;;
60241;SDS011;46103;52.076;113.488;2022-07-29T17:23:08;19.25;;;9.68;;
60241;SDS011;46103;52.076;113.488;2022-07-29T17:26:13;19.25;;;10.40;;
60241;SDS011;46103;52.076;113.488;2022-07-29T17:29:16;17.70;;;9.80;;
60241;SDS011;46103;52.076;113.488;2022-07-29T17:32:20;20.42;;;10.43;;
60241;SDS011;46103;52.076;113.488;2022-07-29T17:35:24;19.65;;;9.32;;
60241;SDS011;46103;52.076;113.488;2022-07-29T17:38:46;16.05;;;8.75;;
60241;SDS011;46103;52.076;113.488;2022-07-29T17:41:51;14.68;;;9.52;;
60241;SDS011;46103;52.076;113.488;2022-07-29T17:44:54;16.75;;;8.88;;
60241;SDS011;46103;52.076;113.488;2022-07-29T17:47:58;20.05;;;8.30;;
60241;SDS011;46103;52.076;113.488;2022-07-29T17:51:02;15.18;;;7.93;;
60241;SDS011;46103;52.076;113.488;2022-07-29T17:54:06;17.48;;;9.27;;
60241;SDS011;46103;52.076;113.488;2022-07-29T17:57:10;19.55;;;9.63;;
60241;SDS011;46103;52.076;113.488;2022-07-29T18:00:14;13.73;;;8.52;;
60241;SDS011;46103;52.076;113.488;2022-07-29T18:03:18;17.10;;;9.43;;
60241;SDS011;46103;52.076;113.488;2022-07-29T18:06:22;15.65;;;9.02;;
60241;SDS011;46103;52.076;113.488;2022-07-29T18:09:26;19.38;;;10.00;;
60241;SDS011;46103;52.076;113.488;2022-07-29T18:12:30;19.50;;;9.45;;
60241;SDS011;46103;52.076;113.488;2022-07-29T18:15:34;17.63;;;9.63;;
60241;SDS011;46103;52.076;113.488;2022-07-29T18:18:38;18.20;;;9.18;;
60241;SDS011;46103;52.076;113.488;2022-07-29T18:21:42;14.55;;;8.60;;
60241;SDS011;46103;52.076;113.488;2022-07-29T18:24:56;17.55;;;8.93;;
60241;SDS011;46103;52.076;113.488;2022-07-29T18:28:00;15.43;;;8.55;;
60241;SDS011;46103;52.076;113.488;2022-07-29T18:31:04;14.82;;;8.20;;
60241;SDS011;46103;52.076;113.488;2022-07-29T18:34:08;15.30;;;8.18;;
60241;SDS011;46103;52.076;113.488;2022-07-29T18:37:12;14.30;;;8.18;;
60241;SDS011;46103;52.076;113.488;2022-07-29T18:40:16;12.25;;;7.78;;
60241;SDS011;46103;52.076;113.488;2022-07-29T18:43:22;12.98;;;7.35;;
60241;SDS011;46103;52.076;113.488;2022-07-29T18:46:25;10.50;;;7.03;;
60241;SDS011;46103;52.076;113.488;2022-07-29T18:49:30;13.98;;;8.30;;
60241;SDS011;46103;52.076;113.488;2022-07-29T18:52:33;9.57;;;6.32;;
60241;SDS011;46103;52.076;113.488;2022-07-29T18:55:37;10.38;;;7.03;;